Terminal Aerodrome Forecast
Issued by NWS

Home | Current Version | Previous Version | Text Only | Print | Product List | Glossary On
Versions: 1 2 3 4 5 6 7 8 9 10 11 12 13 14 15 16 17
154
FTAK31 PAJN 160533
TAFAYA
TAF
PAYA 160533Z 1606/1706 07006KT P6SM OVC050
     FM160700 10008KT 5SM -RA BR SCT015 OVC030
     FM161800 11016G25KT 6SM -RA BR OVC025 WS020/13045KT
     FM162100 10013G22KT P6SM -RA OVC030 WS020/13040KT
      AMD NOT SKED=

USA.gov is the U.S. government's official web portal to all federal, state and local government web resources and services.